createdAt,value
2018-11-01T00:00:23.616Z,6.80
2018-11-01T00:02:51.921Z,6.80
2018-11-01T00:05:20.114Z,6.80
2018-11-01T00:07:48.333Z,6.80
2018-11-01T00:10:16.551Z,6.80
2018-11-01T00:12:45.589Z,6.60
2018-11-01T00:15:13.828Z,6.60
2018-11-01T00:17:42.096Z,6.60
2018-11-01T00:20:10.321Z,6.60
2018-11-01T00:22:38.541Z,6.60
2018-11-01T00:25:07.517Z,6.60
2018-11-01T00:27:35.795Z,6.60
2018-11-01T00:30:04.009Z,6.60
2018-11-01T00:32:32.267Z,6.50
2018-11-01T00:35:01.232Z,6.50
2018-11-01T00:37:29.457Z,6.40
2018-11-01T00:39:57.659Z,6.40
2018-11-01T00:42:25.929Z,6.40
2018-11-01T00:44:54.163Z,6.40
2018-11-01T00:47:23.159Z,6.40
2018-11-01T00:49:52.137Z,6.40
2018-11-01T00:52:21.175Z,6.50
2018-11-01T00:54:49.389Z,6.40
2018-11-01T00:57:17.623Z,6.50
2018-11-01T00:59:45.874Z,6.40
2018-11-01T01:02:14.132Z,6.50
2018-11-01T01:04:42.338Z,6.50
2018-11-01T01:07:10.620Z,6.40
2018-11-01T01:09:39.619Z,6.40
2018-11-01T01:12:07.832Z,6.40
2018-11-01T01:14:36.082Z,6.40
2018-11-01T01:17:04.323Z,6.40
2018-11-01T01:19:33.298Z,6.30
2018-11-01T01:22:01.526Z,6.20
2018-11-01T01:24:29.794Z,6.30
2018-11-01T01:26:58.065Z,6.20
2018-11-01T01:29:27.072Z,6.20
2018-11-01T01:31:55.270Z,6.20
2018-11-01T01:34:23.572Z,6.20
2018-11-01T01:36:51.770Z,6.20
2018-11-01T01:39:20.746Z,6.10
2018-11-01T01:41:48.960Z,6.20
2018-11-01T01:44:17.206Z,6.10
2018-11-01T01:46:45.431Z,6.10
2018-11-01T01:49:13.678Z,6.00
2018-11-01T01:51:42.708Z,6.10
2018-11-01T01:54:10.939Z,6.10
2018-11-01T01:56:39.932Z,6.10
2018-11-01T01:59:08.183Z,6.00
2018-11-01T02:01:36.437Z,6.10
2018-11-01T02:04:04.652Z,6.10
2018-11-01T02:06:33.627Z,6.00
2018-11-01T02:09:01.860Z,6.00
2018-11-01T02:11:30.131Z,6.00
2018-11-01T02:13:58.313Z,6.00
2018-11-01T02:16:26.515Z,6.00
2018-11-01T02:18:54.742Z,5.90
2018-11-01T02:21:23.747Z,5.90
2018-11-01T02:23:52.729Z,5.90
2018-11-01T02:26:21.741Z,5.90
2018-11-01T02:28:50.722Z,5.90
2018-11-01T02:31:19.695Z,5.90
2018-11-01T02:33:48.063Z,5.90
2018-11-01T02:36:16.306Z,5.90
2018-11-01T02:38:44.621Z,5.90
2018-11-01T02:41:12.855Z,5.80
2018-11-01T02:43:41.132Z,5.80
2018-11-01T02:46:09.376Z,5.90
2018-11-01T02:48:41.127Z,5.80
2018-11-01T02:51:09.388Z,5.80
2018-11-01T02:53:37.659Z,5.80
2018-11-01T02:56:05.891Z,5.80
2018-11-01T02:58:34.163Z,5.80
2018-11-01T03:01:02.401Z,5.70
2018-11-01T03:03:30.655Z,5.70
2018-11-01T03:05:58.911Z,5.70
2018-11-01T03:08:27.113Z,5.70
2018-11-01T03:10:55.324Z,5.70
2018-11-01T03:13:24.307Z,5.70
2018-11-01T03:15:53.312Z,5.70
2018-11-01T03:18:22.332Z,5.70
2018-11-01T03:20:50.571Z,5.70
2018-11-01T03:23:18.784Z,5.70
2018-11-01T03:25:46.990Z,5.70
2018-11-01T03:28:15.209Z,5.70
2018-11-01T03:30:44.179Z,5.70
2018-11-01T03:33:12.447Z,5.60
2018-11-01T03:35:40.747Z,5.60
2018-11-01T03:38:09.034Z,5.50
2018-11-01T03:40:37.177Z,5.40
2018-11-01T03:43:05.443Z,5.30
2018-11-01T03:45:33.740Z,5.20
2018-11-01T03:48:01.947Z,5.30
2018-11-01T03:50:30.952Z,5.30
2018-11-01T03:52:59.212Z,5.30
2018-11-01T03:55:28.168Z,5.20
2018-11-01T03:57:56.388Z,5.20
2018-11-01T04:00:24.584Z,5.20
2018-11-01T04:02:52.847Z,5.10
2018-11-01T04:05:21.086Z,4.80
2018-11-01T04:07:49.309Z,4.70
2018-11-01T04:10:17.529Z,4.70
2018-11-01T04:12:45.804Z,4.60
2018-11-01T04:15:14.125Z,4.60
2018-11-01T04:17:42.306Z,4.70
2018-11-01T04:20:10.504Z,4.70
2018-11-01T04:22:38.774Z,4.80
2018-11-01T04:25:07.712Z,4.80
2018-11-01T04:27:35.930Z,4.80
2018-11-01T04:30:04.177Z,4.80
2018-11-01T04:32:32.428Z,4.80
2018-11-01T04:35:00.659Z,4.80
2018-11-01T04:37:28.868Z,4.80
2018-11-01T04:39:57.079Z,4.70
2018-11-01T04:42:25.335Z,4.70
2018-11-01T04:44:53.591Z,4.50
2018-11-01T04:47:21.877Z,4.50
2018-11-01T04:49:50.043Z,4.50
2018-11-01T04:52:18.306Z,4.50
2018-11-01T04:54:46.496Z,4.40
2018-11-01T04:57:14.756Z,4.30
2018-11-01T04:59:42.998Z,4.30
2018-11-01T05:02:11.986Z,4.30
2018-11-01T05:04:40.182Z,4.30
2018-11-01T05:07:09.187Z,4.30
2018-11-01T05:09:37.448Z,4.30
2018-11-01T05:12:06.411Z,4.20
2018-11-01T05:14:34.638Z,4.20
2018-11-01T05:17:02.863Z,4.30
2018-11-01T05:19:31.115Z,4.00
2018-11-01T05:21:59.321Z,4.00
2018-11-01T05:24:27.531Z,4.10
2018-11-01T05:26:55.743Z,4.10
2018-11-01T05:29:24.051Z,4.10
2018-11-01T05:31:52.203Z,4.10
2018-11-01T05:34:20.487Z,4.10
2018-11-01T05:36:48.677Z,4.10
2018-11-01T05:39:16.979Z,4.10
2018-11-01T05:41:46.016Z,4.10
2018-11-01T05:44:14.206Z,4.10
2018-11-01T05:46:42.433Z,4.10
2018-11-01T05:49:11.407Z,4.10
2018-11-01T05:51:40.432Z,4.10
2018-11-01T05:54:08.643Z,4.10
2018-11-01T05:56:36.885Z,4.20
2018-11-01T05:59:05.143Z,4.20
2018-11-01T06:01:34.153Z,4.10
2018-11-01T06:04:02.363Z,4.10
2018-11-01T06:06:30.623Z,4.20
2018-11-01T06:08:58.839Z,4.20
2018-11-01T06:11:27.051Z,4.30
2018-11-01T06:13:55.307Z,4.30
2018-11-01T06:16:24.268Z,4.30
2018-11-01T06:18:52.490Z,4.30
2018-11-01T06:21:21.479Z,4.30
2018-11-01T06:23:50.478Z,4.30
2018-11-01T06:26:19.444Z,4.20
2018-11-01T06:28:47.683Z,4.20
2018-11-01T06:31:15.936Z,4.20
2018-11-01T06:33:44.911Z,4.40
2018-11-01T06:36:13.937Z,4.50
2018-11-01T06:38:42.187Z,4.40
2018-11-01T06:41:11.162Z,4.60
2018-11-01T06:43:39.375Z,4.50
2018-11-01T06:46:07.646Z,4.60
2018-11-01T06:48:36.664Z,4.60
2018-11-01T06:51:04.902Z,4.60
2018-11-01T06:53:33.118Z,4.70
2018-11-01T06:56:01.372Z,4.80
2018-11-01T06:58:29.659Z,5.00
2018-11-01T07:00:58.544Z,5.10
2018-11-01T07:03:26.790Z,5.10
2018-11-01T07:05:54.984Z,5.10
2018-11-01T07:08:23.248Z,5.10
2018-11-01T07:10:51.536Z,5.20
2018-11-01T07:13:20.446Z,5.30
2018-11-01T07:15:49.058Z,5.30
2018-11-01T07:18:17.295Z,5.40
2018-11-01T07:20:49.579Z,5.50
2018-11-01T07:23:18.008Z,5.50
2018-11-01T07:25:46.387Z,5.50
2018-11-01T07:28:14.566Z,5.70
2018-11-01T07:30:42.826Z,5.80
2018-11-01T07:33:11.075Z,5.80
2018-11-01T07:35:39.309Z,5.90
2018-11-01T07:38:07.534Z,6.00
2018-11-01T07:40:35.786Z,6.00
2018-11-01T07:43:04.038Z,6.10
2018-11-01T07:45:32.252Z,6.10
2018-11-01T07:48:00.469Z,6.20
2018-11-01T07:50:28.688Z,6.40
2018-11-01T07:52:57.032Z,6.40
2018-11-01T07:55:25.986Z,6.60
2018-11-01T07:57:54.230Z,6.60
2018-11-01T08:00:23.244Z,6.80
2018-11-01T08:02:51.464Z,6.70
2018-11-01T08:05:19.677Z,6.80
2018-11-01T08:07:48.706Z,7.00
2018-11-01T08:10:16.933Z,7.00
2018-11-01T08:12:45.953Z,7.00
2018-11-01T08:15:14.960Z,7.10
2018-11-01T08:17:43.150Z,7.10
2018-11-01T08:20:11.654Z,7.20
2018-11-01T08:22:40.358Z,7.30
2018-11-01T08:25:08.569Z,7.20
2018-11-01T08:27:36.779Z,7.30
2018-11-01T08:30:05.048Z,7.40
2018-11-01T08:32:33.264Z,7.50
2018-11-01T08:35:01.512Z,7.50
2018-11-01T08:37:29.760Z,7.60
2018-11-01T08:39:58.028Z,7.70
2018-11-01T08:42:26.283Z,7.70
2018-11-01T08:44:54.483Z,7.80
2018-11-01T08:47:22.729Z,7.80
2018-11-01T08:49:50.987Z,7.90
2018-11-01T08:52:19.187Z,8.00
2018-11-01T08:54:48.167Z,8.20
2018-11-01T08:57:16.383Z,8.10
2018-11-01T08:59:44.609Z,8.20
2018-11-01T09:02:12.814Z,8.30
2018-11-01T09:04:41.849Z,8.40
2018-11-01T09:07:10.087Z,8.40
2018-11-01T09:09:39.126Z,8.60
2018-11-01T09:12:07.372Z,8.50
2018-11-01T09:14:35.665Z,8.60
2018-11-01T09:17:03.891Z,8.80
2018-11-01T09:19:32.110Z,8.80
2018-11-01T09:22:00.372Z,8.90
2018-11-01T09:24:29.345Z,9.10
2018-11-01T09:26:58.436Z,9.10
2018-11-01T09:29:27.345Z,9.20
2018-11-01T09:31:56.331Z,9.30
2018-11-01T09:34:24.555Z,9.30
2018-11-01T09:36:52.781Z,9.40
2018-11-01T09:39:21.033Z,9.40
2018-11-01T09:41:49.283Z,9.50
2018-11-01T09:44:17.554Z,9.60
2018-11-01T09:46:46.095Z,9.60
2018-11-01T09:49:14.834Z,9.70
2018-11-01T09:51:43.083Z,9.70
2018-11-01T09:54:12.146Z,9.90
2018-11-01T09:56:40.420Z,9.80
2018-11-01T09:59:08.669Z,9.90
2018-11-01T10:01:36.871Z,9.90
2018-11-01T10:04:05.187Z,10.00
2018-11-01T10:06:33.410Z,10.00
2018-11-01T10:09:01.694Z,10.10
2018-11-01T10:11:29.943Z,10.10
2018-11-01T10:13:58.166Z,10.10
2018-11-01T10:16:26.523Z,10.20
2018-11-01T10:18:54.654Z,10.20
2018-11-01T10:21:22.905Z,10.30
2018-11-01T10:23:51.093Z,10.30
2018-11-01T10:26:20.135Z,10.40
2018-11-01T10:28:48.346Z,10.40
2018-11-01T10:31:17.388Z,10.60
2018-11-01T10:33:45.605Z,10.50
2018-11-01T10:36:13.825Z,10.60
2018-11-01T10:38:42.071Z,10.70
2018-11-01T10:41:11.115Z,10.80
2018-11-01T10:43:39.335Z,10.70
2018-11-01T10:46:07.560Z,10.80
2018-11-01T10:48:35.844Z,10.90
2018-11-01T10:51:04.036Z,11.00
2018-11-01T10:53:32.318Z,11.00
2018-11-01T10:56:01.254Z,11.10
2018-11-01T10:58:30.238Z,11.20
2018-11-01T11:00:59.454Z,11.30
2018-11-01T11:03:28.220Z,11.40
2018-11-01T11:05:57.251Z,11.40
2018-11-01T11:08:25.450Z,11.40
2018-11-01T11:10:53.681Z,11.50
2018-11-01T11:13:21.901Z,11.70
2018-11-01T11:15:50.124Z,11.80
2018-11-01T11:18:19.150Z,12.00
2018-11-01T11:20:47.650Z,12.00
2018-11-01T11:23:15.590Z,12.10
2018-11-01T11:25:43.821Z,12.30
2018-11-01T11:28:12.091Z,12.40
2018-11-01T11:30:40.396Z,12.50
2018-11-01T11:33:08.577Z,12.60
2018-11-01T11:35:37.633Z,12.80
2018-11-01T11:38:05.831Z,12.80
2018-11-01T11:40:34.072Z,12.90
2018-11-01T11:43:02.317Z,13.00
2018-11-01T11:45:30.558Z,13.20
2018-11-01T11:47:58.831Z,13.30
2018-11-01T11:50:27.136Z,13.40
2018-11-01T11:52:56.162Z,13.90
2018-11-01T11:55:24.419Z,13.90
2018-11-01T11:57:53.433Z,14.60
2018-11-01T12:00:21.703Z,14.60
2018-11-01T12:02:49.966Z,15.10
2018-11-01T12:05:19.035Z,15.80
2018-11-01T12:07:47.249Z,15.80
2018-11-01T12:10:16.277Z,16.30
2018-11-01T12:12:44.501Z,16.30
2018-11-01T12:15:13.486Z,16.70
2018-11-01T12:17:42.503Z,16.80
2018-11-01T12:20:10.818Z,16.80
2018-11-01T12:22:39.072Z,17.00
2018-11-01T12:25:07.346Z,17.10
2018-11-01T12:27:35.559Z,17.30
2018-11-01T12:30:03.857Z,17.60
2018-11-01T12:32:32.076Z,17.70
2018-11-01T12:35:00.398Z,17.90
2018-11-01T12:37:28.593Z,18.10
2018-11-01T12:39:58.577Z,18.50
2018-11-01T12:42:27.660Z,18.70
2018-11-01T12:44:55.962Z,18.70
2018-11-01T12:47:25.288Z,19.00
2018-11-01T12:49:55.019Z,19.20
2018-11-01T12:52:24.127Z,19.30
2018-11-01T12:54:52.380Z,19.30
2018-11-01T12:57:21.364Z,20.10
2018-11-01T12:59:49.578Z,20.10
2018-11-01T13:02:17.884Z,21.00
2018-11-01T13:04:46.122Z,21.90
2018-11-01T13:07:15.170Z,22.90
2018-11-01T13:09:43.371Z,22.90
2018-11-01T13:12:12.421Z,23.50
2018-11-01T13:14:40.629Z,23.50
2018-11-01T13:17:08.892Z,23.10
2018-11-01T13:19:37.140Z,23.90
2018-11-01T13:22:05.413Z,24.90
2018-11-01T13:24:33.641Z,24.60
2018-11-01T13:27:02.654Z,26.70
2018-11-01T13:29:30.944Z,26.60
2018-11-01T13:31:59.932Z,28.10
2018-11-01T13:34:28.151Z,28.00
2018-11-01T13:36:56.384Z,28.20
2018-11-01T13:39:24.767Z,27.20
2018-11-01T13:41:53.723Z,25.90
2018-11-01T13:44:22.624Z,24.70
2018-11-01T13:46:51.662Z,24.10
2018-11-01T13:49:19.870Z,24.10
2018-11-01T13:51:48.140Z,24.10
2018-11-01T13:54:16.367Z,24.30
2018-11-01T13:56:44.657Z,23.90
2018-11-01T13:59:12.869Z,24.40
2018-11-01T14:01:41.170Z,24.50
2018-11-01T14:04:09.390Z,25.10
2018-11-01T14:06:37.623Z,25.00
2018-11-01T14:09:05.838Z,24.40
2018-11-01T14:11:34.104Z,24.20
2018-11-01T14:14:03.333Z,23.30
2018-11-01T14:16:32.149Z,23.10
2018-11-01T14:19:00.405Z,23.10
2018-11-01T14:21:28.664Z,22.90
2018-11-01T14:23:56.883Z,22.30
2018-11-01T14:26:25.178Z,21.90
2018-11-01T14:28:53.436Z,21.70
2018-11-01T14:31:21.723Z,21.00
2018-11-01T14:33:49.929Z,20.30
2018-11-01T14:36:18.961Z,19.90
2018-11-01T14:38:47.168Z,19.90
2018-11-01T14:41:15.406Z,19.50
2018-11-01T14:43:43.631Z,19.30
2018-11-01T14:46:11.913Z,19.10
2018-11-01T14:48:40.134Z,18.90
2018-11-01T14:51:08.389Z,18.80
2018-11-01T14:53:37.604Z,18.40
2018-11-01T14:56:06.703Z,18.40
2018-11-01T14:58:35.060Z,18.20
2018-11-01T15:01:02.164Z,18.00
2018-11-01T15:03:30.413Z,17.80
2018-11-01T15:05:58.649Z,17.70
2018-11-01T15:08:27.646Z,17.50
2018-11-01T15:10:56.647Z,17.40
2018-11-01T15:13:25.632Z,17.20
2018-11-01T15:15:54.651Z,16.90
2018-11-01T15:18:22.904Z,16.90
2018-11-01T15:20:51.912Z,16.90
2018-11-01T15:23:20.185Z,16.80
2018-11-01T15:25:49.202Z,16.60
2018-11-01T15:28:17.422Z,16.60
2018-11-01T15:30:45.635Z,16.40
2018-11-01T15:33:14.021Z,16.40
2018-11-01T15:35:42.137Z,16.20
2018-11-01T15:38:10.381Z,16.20
2018-11-01T15:40:38.694Z,16.00
2018-11-01T15:43:06.895Z,16.00
2018-11-01T15:45:35.159Z,15.90
2018-11-01T15:48:03.439Z,15.90
2018-11-01T15:50:31.668Z,15.90
2018-11-01T15:52:59.910Z,15.90
2018-11-01T15:55:28.954Z,15.60
2018-11-01T15:57:57.183Z,15.60
2018-11-01T16:00:26.164Z,15.40
2018-11-01T16:02:54.398Z,15.40
2018-11-01T16:05:22.616Z,15.40
2018-11-01T16:07:50.858Z,15.30
2018-11-01T16:10:19.110Z,15.30
2018-11-01T16:12:47.390Z,15.20
2018-11-01T16:15:15.604Z,15.10
2018-11-01T16:17:45.371Z,14.90
2018-11-01T16:20:13.669Z,14.90
2018-11-01T16:22:41.825Z,14.80
2018-11-01T16:25:10.089Z,14.70
2018-11-01T16:27:39.106Z,14.30
2018-11-01T16:30:07.318Z,14.30
2018-11-01T16:32:35.562Z,14.20
2018-11-01T16:35:03.760Z,14.00
2018-11-01T16:37:31.992Z,13.70
2018-11-01T16:40:00.256Z,13.60
2018-11-01T16:42:29.402Z,13.40
2018-11-01T16:44:57.519Z,13.40
2018-11-01T16:47:26.515Z,13.20
2018-11-01T16:49:55.535Z,12.70
2018-11-01T16:52:23.767Z,12.70
2018-11-01T16:54:52.025Z,12.60
2018-11-01T16:57:20.297Z,12.50
2018-11-01T16:59:48.508Z,12.40
2018-11-01T17:02:17.559Z,12.30
2018-11-01T17:04:45.807Z,12.30
2018-11-01T17:07:14.097Z,12.20
2018-11-01T17:09:42.654Z,12.20
2018-11-01T17:12:10.865Z,12.00
2018-11-01T17:14:39.091Z,12.00
2018-11-01T17:17:07.325Z,11.90
2018-11-01T17:19:35.557Z,11.80
2018-11-01T17:22:04.629Z,11.70
2018-11-01T17:24:32.903Z,11.70
2018-11-01T17:27:01.156Z,11.70
2018-11-01T17:29:29.416Z,11.70
2018-11-01T17:31:57.690Z,11.60
2018-11-01T17:34:25.903Z,11.60
2018-11-01T17:36:54.128Z,11.50
2018-11-01T17:39:22.344Z,11.40
2018-11-01T17:41:50.621Z,11.30
2018-11-01T17:44:18.882Z,11.30
2018-11-01T17:46:47.119Z,11.20
2018-11-01T17:49:16.105Z,11.20
2018-11-01T17:51:45.119Z,11.00
2018-11-01T17:54:14.172Z,11.00
2018-11-01T17:56:42.393Z,11.00
2018-11-01T17:59:10.634Z,11.00
2018-11-01T18:01:38.915Z,10.90
2018-11-01T18:04:07.141Z,10.80
2018-11-01T18:06:36.101Z,10.70
2018-11-01T18:09:05.275Z,10.70
2018-11-01T18:11:33.425Z,10.70
2018-11-01T18:14:01.668Z,10.60
2018-11-01T18:16:30.694Z,10.50
2018-11-01T18:18:58.925Z,10.40
2018-11-01T18:21:27.968Z,10.30
2018-11-01T18:23:56.196Z,10.30
2018-11-01T18:26:24.475Z,10.30
2018-11-01T18:28:53.491Z,10.20
2018-11-01T18:31:22.532Z,10.10
2018-11-01T18:33:51.508Z,10.00
2018-11-01T18:36:19.790Z,10.00
2018-11-01T18:38:48.039Z,9.90
2018-11-01T18:41:16.287Z,9.80
2018-11-01T18:43:45.276Z,9.70
2018-11-01T18:46:14.292Z,9.70
2018-11-01T18:48:42.521Z,9.70
2018-11-01T18:51:10.785Z,9.70
2018-11-01T18:53:39.053Z,9.60
2018-11-01T18:56:07.261Z,9.60
2018-11-01T18:58:35.537Z,9.50
2018-11-01T19:01:03.757Z,9.40
2018-11-01T19:03:32.071Z,9.20
2018-11-01T19:06:00.288Z,8.90
2018-11-01T19:08:29.329Z,8.70
2018-11-01T19:10:57.547Z,8.70
2018-11-01T19:13:26.601Z,8.70
2018-11-01T19:15:54.824Z,8.70
2018-11-01T19:18:23.022Z,8.80
2018-11-01T19:20:51.283Z,8.70
2018-11-01T19:23:20.270Z,8.80
2018-11-01T19:25:49.288Z,8.80
2018-11-01T19:28:17.586Z,8.80
2018-11-01T19:30:46.568Z,8.70
2018-11-01T19:33:14.782Z,8.70
2018-11-01T19:35:43.077Z,8.70
2018-11-01T19:38:11.300Z,8.70
2018-11-01T19:40:39.517Z,8.70
2018-11-01T19:43:07.791Z,8.70
2018-11-01T19:45:36.047Z,8.70
2018-11-01T19:48:04.309Z,8.70
2018-11-01T19:50:33.255Z,8.70
2018-11-01T19:53:01.514Z,8.70
2018-11-01T19:55:29.778Z,8.70
2018-11-01T19:57:58.043Z,8.70
2018-11-01T20:00:26.291Z,8.70
2018-11-01T20:02:55.362Z,8.70
2018-11-01T20:05:23.512Z,8.70
2018-11-01T20:07:51.747Z,8.70
2018-11-01T20:10:20.136Z,8.60
2018-11-01T20:12:48.196Z,8.50
2018-11-01T20:15:16.461Z,8.50
2018-11-01T20:17:45.480Z,8.50
2018-11-01T20:20:13.757Z,8.50
2018-11-01T20:22:41.955Z,8.50
2018-11-01T20:25:10.230Z,8.40
2018-11-01T20:27:38.505Z,8.50
2018-11-01T20:30:07.449Z,8.60
2018-11-01T20:32:36.472Z,8.60
2018-11-01T20:35:04.703Z,8.60
2018-11-01T20:37:32.960Z,8.60
2018-11-01T20:40:01.246Z,8.60
2018-11-01T20:42:29.462Z,8.60
2018-11-01T20:44:57.775Z,8.60
2018-11-01T20:47:25.989Z,8.60
2018-11-01T20:49:54.294Z,8.60
2018-11-01T20:52:23.258Z,8.50
2018-11-01T20:54:51.536Z,8.50
2018-11-01T20:57:19.826Z,8.50
2018-11-01T20:59:48.029Z,8.50
2018-11-01T21:02:16.244Z,8.50
2018-11-01T21:04:44.574Z,8.50
2018-11-01T21:07:12.758Z,8.40
2018-11-01T21:09:41.036Z,8.40
2018-11-01T21:12:09.238Z,8.40
2018-11-01T21:14:37.503Z,8.40
2018-11-01T21:17:05.829Z,8.50
2018-11-01T21:19:33.946Z,8.60
2018-11-01T21:22:02.169Z,8.60
2018-11-01T21:24:30.396Z,8.70
2018-11-01T21:26:58.599Z,8.70
2018-11-01T21:29:26.821Z,8.80
2018-11-01T21:31:55.834Z,8.90
2018-11-01T21:34:24.827Z,9.00
2018-11-01T21:36:53.044Z,8.90
2018-11-01T21:39:21.312Z,9.00
2018-11-01T21:41:49.571Z,9.00
2018-11-01T21:44:18.552Z,8.90
2018-11-01T21:46:47.556Z,8.90
2018-11-01T21:49:15.822Z,8.90
2018-11-01T21:51:44.062Z,8.90
2018-11-01T21:54:12.272Z,8.90
2018-11-01T21:56:40.487Z,8.90
2018-11-01T21:59:08.723Z,8.90
2018-11-01T22:01:36.937Z,8.90
2018-11-01T22:04:05.179Z,8.90
2018-11-01T22:06:33.442Z,8.80
2018-11-01T22:09:02.435Z,8.80
2018-11-01T22:11:31.395Z,8.80
2018-11-01T22:13:59.627Z,8.80
2018-11-01T22:16:27.839Z,8.80
2018-11-01T22:18:56.115Z,8.80
2018-11-01T22:21:24.305Z,8.70
2018-11-01T22:23:52.527Z,8.70
2018-11-01T22:26:20.744Z,8.60
2018-11-01T22:28:49.131Z,8.60
2018-11-01T22:31:17.255Z,8.60
2018-11-01T22:33:45.523Z,8.50
2018-11-01T22:36:14.550Z,8.50
2018-11-01T22:38:42.940Z,8.50
2018-11-01T22:41:11.067Z,8.50
2018-11-01T22:43:40.078Z,8.40
2018-11-01T22:46:08.284Z,8.40
2018-11-01T22:48:36.568Z,8.40
2018-11-01T22:51:05.486Z,8.30
2018-11-01T22:53:33.745Z,8.30
2018-11-01T22:56:01.948Z,8.30
2018-11-01T22:58:30.937Z,8.20
2018-11-01T23:00:59.978Z,8.20
2018-11-01T23:03:28.244Z,8.10
2018-11-01T23:05:56.492Z,8.10
2018-11-01T23:08:25.481Z,8.10
2018-11-01T23:10:54.454Z,8.00
2018-11-01T23:13:22.722Z,8.00
2018-11-01T23:15:50.968Z,7.90
2018-11-01T23:18:19.209Z,7.90
2018-11-01T23:20:48.192Z,7.80
2018-11-01T23:23:16.460Z,7.80
2018-11-01T23:25:44.680Z,7.80
2018-11-01T23:28:13.656Z,7.80
2018-11-01T23:30:42.654Z,7.80
2018-11-01T23:33:12.533Z,7.70
2018-11-01T23:35:40.730Z,7.70
2018-11-01T23:38:15.479Z,7.70
2018-11-01T23:40:50.254Z,7.70
2018-11-01T23:43:24.152Z,7.70
2018-11-01T23:45:57.990Z,7.70
2018-11-01T23:48:25.777Z,7.60
2018-11-01T23:50:53.979Z,7.50
2018-11-01T23:53:22.190Z,7.50
2018-11-01T23:55:50.405Z,7.40
2018-11-01T23:58:19.431Z,7.30
